createdAt,value
2019-01-03T00:05:00.947Z,3.60
2019-01-03T00:10:05.548Z,2.93
2019-01-03T00:15:09.184Z,4.10
2019-01-03T00:20:21.766Z,7.40
2019-01-03T00:25:28.126Z,6.50
2019-01-03T00:30:43.816Z,5.73
2019-01-03T00:35:58.949Z,4.43
2019-01-03T00:41:02.476Z,4.27
2019-01-03T00:46:08.553Z,4.70
2019-01-03T00:51:15.152Z,5.20
2019-01-03T00:56:36.664Z,4.13
2019-01-03T01:01:43.767Z,3.10
2019-01-03T01:06:47.335Z,6.70
2019-01-03T01:12:02.766Z,4.57
2019-01-03T01:17:23.055Z,6.03
2019-01-03T01:22:26.561Z,3.73
2019-01-03T01:27:46.159Z,4.40
2019-01-03T01:33:08.275Z,5.17
2019-01-03T01:38:20.715Z,11.87
2019-01-03T01:43:30.523Z,4.00
2019-01-03T01:48:36.801Z,5.23
2019-01-03T01:53:56.991Z,4.10
2019-01-03T01:59:00.457Z,3.00
2019-01-03T02:04:22.516Z,3.03
2019-01-03T02:09:31.865Z,4.23
2019-01-03T02:14:38.208Z,3.43
2019-01-03T02:19:44.836Z,4.37
2019-01-03T02:25:05.270Z,3.70
2019-01-03T02:30:08.901Z,3.90
2019-01-03T02:35:27.371Z,4.30
2019-01-03T02:40:49.001Z,5.27
2019-01-03T02:45:55.790Z,6.00
2019-01-03T02:50:59.314Z,4.90
2019-01-03T02:56:19.439Z,4.17
2019-01-03T03:01:38.098Z,3.50
2019-01-03T03:06:42.008Z,4.00
2019-01-03T03:11:54.447Z,4.20
2019-01-03T03:17:14.747Z,3.93
2019-01-03T03:22:30.405Z,3.60
2019-01-03T03:27:36.932Z,3.67
2019-01-03T03:32:43.194Z,3.07
2019-01-03T03:37:46.997Z,3.40
2019-01-03T03:43:02.797Z,2.40
2019-01-03T03:48:21.506Z,3.13
2019-01-03T03:53:41.157Z,3.30
2019-01-03T03:58:44.749Z,2.23
2019-01-03T04:04:04.923Z,6.17
2019-01-03T04:09:14.526Z,2.30
2019-01-03T04:14:34.195Z,3.07
2019-01-03T04:19:54.677Z,3.17
2019-01-03T04:24:58.155Z,3.70
2019-01-03T04:30:04.694Z,3.93
2019-01-03T04:35:24.624Z,3.97
2019-01-03T04:40:30.944Z,2.20
2019-01-03T04:45:34.439Z,2.17
2019-01-03T04:50:50.170Z,3.13
2019-01-03T04:56:10.023Z,3.50
2019-01-03T05:01:59.460Z,3.53
2019-01-03T05:07:14.893Z,3.50
2019-01-03T05:12:28.823Z,3.67
2019-01-03T05:17:32.348Z,2.40
2019-01-03T05:22:52.588Z,2.40
2019-01-03T05:27:59.079Z,2.20
2019-01-03T05:33:20.556Z,2.40
2019-01-03T05:38:40.296Z,2.13
2019-01-03T05:43:44.204Z,2.63
2019-01-03T05:48:47.990Z,2.17
2019-01-03T05:54:09.432Z,3.63
2019-01-03T05:59:13.035Z,3.77
2019-01-03T06:04:22.929Z,3.40
2019-01-03T06:09:26.478Z,2.43
2019-01-03T06:14:45.518Z,2.77
2019-01-03T06:19:57.636Z,2.07
2019-01-03T06:25:19.124Z,2.37
2019-01-03T06:30:23.172Z,2.57
2019-01-03T06:35:43.440Z,2.67
2019-01-03T06:40:59.168Z,2.53
2019-01-03T06:46:19.358Z,2.53
2019-01-03T06:51:28.631Z,3.27
2019-01-03T06:56:41.218Z,3.27
2019-01-03T07:01:50.911Z,3.40
2019-01-03T07:06:57.638Z,3.60
2019-01-03T07:12:02.352Z,5.17
2019-01-03T07:17:22.938Z,4.90
2019-01-03T07:22:36.105Z,2.77
2019-01-03T07:27:45.447Z,2.60
2019-01-03T07:32:51.711Z,2.67
2019-01-03T07:37:58.623Z,3.30
2019-01-03T07:43:20.911Z,4.07
2019-01-03T07:48:27.725Z,6.27
2019-01-03T07:53:34.083Z,4.50
2019-01-03T07:58:37.666Z,3.70
2019-01-03T08:03:47.415Z,4.47
2019-01-03T08:09:03.207Z,4.30
2019-01-03T08:14:06.764Z,6.40
2019-01-03T08:19:22.499Z,8.17
2019-01-03T08:24:34.926Z,6.27
2019-01-03T08:29:38.950Z,8.30
2019-01-03T08:34:51.845Z,7.00
2019-01-03T08:40:07.785Z,7.60
2019-01-03T08:45:27.664Z,9.47
2019-01-03T08:50:31.182Z,7.50
2019-01-03T08:55:53.083Z,8.13
2019-01-03T09:00:56.877Z,6.30
2019-01-03T09:06:00.407Z,7.43
2019-01-03T09:11:10.110Z,4.40
2019-01-03T09:16:13.684Z,5.90
2019-01-03T09:21:33.783Z,6.20
2019-01-03T09:26:43.907Z,6.93
2019-01-03T09:31:47.983Z,7.87
2019-01-03T09:36:54.466Z,7.27
2019-01-03T09:42:07.762Z,7.10
2019-01-03T09:47:09.538Z,7.73
2019-01-03T09:52:12.136Z,9.00
2019-01-03T09:57:14.342Z,7.63
2019-01-03T10:02:16.327Z,8.60
2019-01-03T10:07:18.070Z,7.93
2019-01-03T10:12:20.107Z,7.50
2019-01-03T10:17:22.170Z,5.57
2019-01-03T10:22:23.966Z,10.20
2019-01-03T10:27:25.928Z,6.97
2019-01-03T10:32:27.922Z,5.63
2019-01-03T10:37:29.859Z,4.60
2019-01-03T10:42:31.514Z,6.63
2019-01-03T10:47:33.418Z,5.00
2019-01-03T10:52:35.120Z,4.33
2019-01-03T10:57:37.034Z,5.23
2019-01-03T11:02:38.743Z,5.37
2019-01-03T11:07:40.423Z,4.53
2019-01-03T11:12:42.071Z,3.97
2019-01-03T11:17:44.054Z,6.53
2019-01-03T11:22:47.240Z,5.93
2019-01-03T11:27:49.247Z,6.23
2019-01-03T11:32:50.926Z,7.40
2019-01-03T11:37:52.911Z,5.67
2019-01-03T11:42:54.571Z,5.70
2019-01-03T11:47:56.249Z,5.40
2019-01-03T11:52:57.897Z,7.30
2019-01-03T11:57:59.983Z,6.37
2019-01-03T12:03:01.939Z,7.70
2019-01-03T12:08:03.921Z,8.43
2019-01-03T12:13:05.986Z,6.90
2019-01-03T12:18:08.063Z,7.93
2019-01-03T12:23:11.204Z,7.30
2019-01-03T12:28:13.031Z,6.73
2019-01-03T12:33:14.697Z,6.67
2019-01-03T12:38:16.378Z,7.67
2019-01-03T12:43:18.025Z,7.10
2019-01-03T12:48:19.713Z,6.70
2019-01-03T12:53:21.450Z,4.73
2019-01-03T12:58:23.722Z,6.27
2019-01-03T13:03:25.487Z,6.10
2019-01-03T13:08:27.251Z,7.60
2019-01-03T13:13:29.002Z,6.10
2019-01-03T13:18:31.049Z,6.70
2019-01-03T13:23:34.252Z,6.87
2019-01-03T13:28:35.905Z,6.13
2019-01-03T13:33:38.120Z,7.17
2019-01-03T13:38:39.724Z,6.47
2019-01-03T13:43:41.408Z,7.17
2019-01-03T13:48:43.067Z,7.37
2019-01-03T13:53:45.043Z,8.80
2019-01-03T13:58:46.694Z,8.97
2019-01-03T14:03:48.672Z,7.90
2019-01-03T14:08:50.343Z,6.47
2019-01-03T14:13:52.484Z,6.23
2019-01-03T14:18:54.183Z,6.83
2019-01-03T14:23:56.370Z,6.00
2019-01-03T14:28:58.290Z,7.50
2019-01-03T14:34:00.303Z,7.33
2019-01-03T14:39:02.398Z,9.17
2019-01-03T14:44:04.185Z,7.20
2019-01-03T14:49:07.618Z,8.40
2019-01-03T14:54:09.765Z,9.93
2019-01-03T14:59:13.151Z,8.87
2019-01-03T15:04:15.031Z,11.50
2019-01-03T15:09:16.770Z,9.20
2019-01-03T15:14:18.521Z,16.83
2019-01-03T15:19:20.259Z,9.60
2019-01-03T15:24:23.786Z,9.60
2019-01-03T15:29:25.563Z,9.60
2019-01-03T15:34:27.286Z,9.00
2019-01-03T15:39:28.965Z,7.30
2019-01-03T15:44:30.696Z,8.67
2019-01-03T15:49:32.312Z,8.87
2019-01-03T15:54:34.296Z,7.27
2019-01-03T15:59:35.902Z,7.07
2019-01-03T16:04:37.622Z,7.10
2019-01-03T16:09:39.238Z,7.53
2019-01-03T16:14:40.915Z,9.10
2019-01-03T16:19:42.522Z,8.27
2019-01-03T16:24:45.413Z,8.50
2019-01-03T16:29:48.256Z,12.30
2019-01-03T16:34:50.139Z,8.83
2019-01-03T16:39:51.888Z,9.50
2019-01-03T16:44:54.687Z,8.90
2019-01-03T16:49:56.683Z,7.70
2019-01-03T16:54:58.426Z,7.60
2019-01-03T17:00:00.229Z,8.23
2019-01-03T17:05:02.037Z,7.77
2019-01-03T17:10:07.384Z,7.57
2019-01-03T17:15:09.457Z,8.90
2019-01-03T17:20:11.724Z,8.80
2019-01-03T17:25:13.421Z,8.30
2019-01-03T17:30:15.371Z,8.00
2019-01-03T17:35:17.131Z,8.70
2019-01-03T17:40:18.879Z,8.30
2019-01-03T17:45:20.631Z,6.80
2019-01-03T17:50:22.373Z,7.00
2019-01-03T17:55:24.542Z,5.23
2019-01-03T18:00:26.300Z,6.77
2019-01-03T18:05:28.579Z,7.10
2019-01-03T18:10:30.672Z,8.50
2019-01-03T18:15:32.404Z,8.30
2019-01-03T18:20:34.162Z,7.63
2019-01-03T18:25:36.235Z,7.43
2019-01-03T18:30:38.091Z,8.53
2019-01-03T18:35:39.757Z,9.67
2019-01-03T18:40:41.426Z,11.13
2019-01-03T18:45:43.082Z,8.00
2019-01-03T18:50:46.029Z,4.53
2019-01-03T18:55:47.987Z,8.07
2019-01-03T19:00:49.595Z,7.70
2019-01-03T19:05:51.310Z,7.37
2019-01-03T19:10:52.949Z,7.13
2019-01-03T19:15:54.897Z,5.40
2019-01-03T19:20:56.597Z,6.67
2019-01-03T19:25:58.476Z,5.13
2019-01-03T19:31:00.386Z,6.17
2019-01-03T19:36:02.071Z,5.80
2019-01-03T19:41:03.755Z,4.00
2019-01-03T19:46:05.417Z,5.20
2019-01-03T19:51:07.093Z,5.30
2019-01-03T19:56:08.754Z,4.37
2019-01-03T20:01:10.426Z,4.00
2019-01-03T20:06:12.165Z,4.03
2019-01-03T20:11:15.865Z,4.40
2019-01-03T20:16:17.751Z,4.70
2019-01-03T20:21:19.500Z,7.20
2019-01-03T20:26:22.453Z,4.20
2019-01-03T20:31:24.166Z,5.70
2019-01-03T20:36:25.889Z,13.93
2019-01-03T20:41:27.520Z,5.80
2019-01-03T20:46:30.384Z,6.60
2019-01-03T20:51:31.998Z,5.03
2019-01-03T20:56:33.711Z,5.70
2019-01-03T21:01:35.426Z,5.40
2019-01-03T21:06:37.099Z,7.73
2019-01-03T21:11:38.758Z,4.47
2019-01-03T21:16:40.680Z,4.10
2019-01-03T21:21:42.702Z,6.63
2019-01-03T21:26:44.676Z,4.37
2019-01-03T21:31:46.339Z,4.57
2019-01-03T21:36:48.052Z,6.50
2019-01-03T21:41:49.703Z,4.83
2019-01-03T21:46:51.874Z,5.47
2019-01-03T21:51:53.531Z,6.40
2019-01-03T21:56:55.512Z,5.00
2019-01-03T22:01:57.168Z,4.37
2019-01-03T22:06:58.886Z,4.40
2019-01-03T22:12:01.045Z,4.60
2019-01-03T22:17:02.806Z,5.27
2019-01-03T22:22:04.810Z,4.60
2019-01-03T22:27:06.989Z,4.13
2019-01-03T22:32:08.637Z,5.30
2019-01-03T22:37:10.341Z,3.87
2019-01-03T22:42:12.013Z,9.07
2019-01-03T22:47:13.619Z,8.10
2019-01-03T22:52:15.276Z,3.70
2019-01-03T22:57:17.195Z,5.10
2019-01-03T23:02:18.966Z,3.80
2019-01-03T23:07:20.764Z,4.73
2019-01-03T23:12:22.515Z,2.73
2019-01-03T23:17:24.260Z,2.90
2019-01-03T23:22:26.097Z,3.40
2019-01-03T23:27:27.901Z,4.07
2019-01-03T23:32:30.222Z,3.60
2019-01-03T23:37:31.903Z,3.50
2019-01-03T23:42:33.688Z,3.77
2019-01-03T23:47:35.542Z,3.67
2019-01-03T23:52:37.156Z,3.43
2019-01-03T23:57:39.067Z,3.20
